sensor_id;sensor_type;location;lat;lon;timestamp;temperature;humidity
12769;DHT22;6448;48.916;8.990;2022-07-29T00:00:19;28.50;45.20
12769;DHT22;6448;48.916;8.990;2022-07-29T00:01:20;28.40;45.10
12769;DHT22;6448;48.916;8.990;2022-07-29T00:02:22;28.40;45.10
12769;DHT22;6448;48.916;8.990;2022-07-29T00:03:23;28.50;45.20
12769;DHT22;6448;48.916;8.990;2022-07-29T00:04:25;28.50;45.30
12769;DHT22;6448;48.916;8.990;2022-07-29T00:05:26;28.40;45.10
12769;DHT22;6448;48.916;8.990;2022-07-29T00:06:27;28.40;45.20
12769;DHT22;6448;48.916;8.990;2022-07-29T00:07:29;28.50;45.30
12769;DHT22;6448;48.916;8.990;2022-07-29T00:08:30;28.40;45.40
12769;DHT22;6448;48.916;8.990;2022-07-29T00:09:32;28.40;45.40
12769;DHT22;6448;48.916;8.990;2022-07-29T00:10:33;28.40;45.30
12769;DHT22;6448;48.916;8.990;2022-07-29T00:11:35;28.40;45.30
12769;DHT22;6448;48.916;8.990;2022-07-29T00:12:36;28.40;45.20
12769;DHT22;6448;48.916;8.990;2022-07-29T00:13:39;28.40;45.20
12769;DHT22;6448;48.916;8.990;2022-07-29T00:14:40;28.40;45.30
12769;DHT22;6448;48.916;8.990;2022-07-29T00:15:41;28.40;45.40
12769;DHT22;6448;48.916;8.990;2022-07-29T00:16:43;28.30;45.40
12769;DHT22;6448;48.916;8.990;2022-07-29T00:17:44;28.30;45.40
12769;DHT22;6448;48.916;8.990;2022-07-29T00:18:45;28.30;45.50
12769;DHT22;6448;48.916;8.990;2022-07-29T00:19:46;28.30;45.50
12769;DHT22;6448;48.916;8.990;2022-07-29T00:20:48;28.30;45.70
12769;DHT22;6448;48.916;8.990;2022-07-29T00:21:49;28.30;45.70
12769;DHT22;6448;48.916;8.990;2022-07-29T00:22:50;28.20;45.50
12769;DHT22;6448;48.916;8.990;2022-07-29T00:23:51;28.30;45.60
12769;DHT22;6448;48.916;8.990;2022-07-29T00:24:53;28.20;45.60
12769;DHT22;6448;48.916;8.990;2022-07-29T00:25:54;28.20;45.50
12769;DHT22;6448;48.916;8.990;2022-07-29T00:26:55;28.20;45.50
12769;DHT22;6448;48.916;8.990;2022-07-29T00:27:56;28.20;45.70
12769;DHT22;6448;48.916;8.990;2022-07-29T00:29:00;28.10;45.60
12769;DHT22;6448;48.916;8.990;2022-07-29T00:30:01;28.10;45.50
12769;DHT22;6448;48.916;8.990;2022-07-29T00:31:03;28.10;46.20
12769;DHT22;6448;48.916;8.990;2022-07-29T00:32:04;28.10;45.60
12769;DHT22;6448;48.916;8.990;2022-07-29T00:33:06;28.00;45.60
12769;DHT22;6448;48.916;8.990;2022-07-29T00:34:07;28.00;45.60
12769;DHT22;6448;48.916;8.990;2022-07-29T00:35:29;28.00;45.70
12769;DHT22;6448;48.916;8.990;2022-07-29T00:36:44;28.00;45.70
12769;DHT22;6448;48.916;8.990;2022-07-29T00:37:45;27.90;45.70
12769;DHT22;6448;48.916;8.990;2022-07-29T00:38:46;27.90;45.80
12769;DHT22;6448;48.916;8.990;2022-07-29T00:39:48;27.90;45.80
12769;DHT22;6448;48.916;8.990;2022-07-29T00:40:49;27.90;46.00
12769;DHT22;6448;48.916;8.990;2022-07-29T00:41:51;27.80;46.00
12769;DHT22;6448;48.916;8.990;2022-07-29T00:42:52;27.80;46.00
12769;DHT22;6448;48.916;8.990;2022-07-29T00:43:54;27.80;46.10
12769;DHT22;6448;48.916;8.990;2022-07-29T00:44:57;27.70;46.00
12769;DHT22;6448;48.916;8.990;2022-07-29T00:45:58;27.80;46.10
12769;DHT22;6448;48.916;8.990;2022-07-29T00:46:59;27.70;46.10
12769;DHT22;6448;48.916;8.990;2022-07-29T00:48:00;27.90;46.30
12769;DHT22;6448;48.916;8.990;2022-07-29T00:49:03;27.70;46.20
12769;DHT22;6448;48.916;8.990;2022-07-29T00:50:04;27.70;46.20
12769;DHT22;6448;48.916;8.990;2022-07-29T00:51:07;27.70;46.30
12769;DHT22;6448;48.916;8.990;2022-07-29T00:52:09;27.70;46.30
12769;DHT22;6448;48.916;8.990;2022-07-29T00:53:12;27.80;46.40
12769;DHT22;6448;48.916;8.990;2022-07-29T00:54:14;27.90;46.50
12769;DHT22;6448;48.916;8.990;2022-07-29T00:55:16;27.80;46.40
12769;DHT22;6448;48.916;8.990;2022-07-29T00:56:18;27.70;46.50
12769;DHT22;6448;48.916;8.990;2022-07-29T00:57:20;27.60;46.40
12769;DHT22;6448;48.916;8.990;2022-07-29T00:58:20;27.60;46.50
12769;DHT22;6448;48.916;8.990;2022-07-29T00:59:22;27.60;46.50
12769;DHT22;6448;48.916;8.990;2022-07-29T01:00:27;27.60;46.50
12769;DHT22;6448;48.916;8.990;2022-07-29T01:01:29;27.60;46.40
12769;DHT22;6448;48.916;8.990;2022-07-29T01:02:30;27.60;46.40
12769;DHT22;6448;48.916;8.990;2022-07-29T01:03:32;27.60;46.40
12769;DHT22;6448;48.916;8.990;2022-07-29T01:04:33;27.50;46.40
12769;DHT22;6448;48.916;8.990;2022-07-29T01:05:35;27.60;46.60
12769;DHT22;6448;48.916;8.990;2022-07-29T01:06:37;27.50;46.60
12769;DHT22;6448;48.916;8.990;2022-07-29T01:07:38;27.50;46.50
12769;DHT22;6448;48.916;8.990;2022-07-29T01:08:40;27.50;46.50
12769;DHT22;6448;48.916;8.990;2022-07-29T01:09:42;27.60;46.60
12769;DHT22;6448;48.916;8.990;2022-07-29T01:10:45;27.50;46.60
12769;DHT22;6448;48.916;8.990;2022-07-29T01:11:47;27.50;46.60
12769;DHT22;6448;48.916;8.990;2022-07-29T01:12:51;27.50;46.60
12769;DHT22;6448;48.916;8.990;2022-07-29T01:13:53;27.50;46.60
12769;DHT22;6448;48.916;8.990;2022-07-29T01:14:55;27.50;46.60
12769;DHT22;6448;48.916;8.990;2022-07-29T01:16:01;27.50;46.60
12769;DHT22;6448;48.916;8.990;2022-07-29T01:17:09;27.50;46.60
12769;DHT22;6448;48.916;8.990;2022-07-29T01:18:15;27.50;46.60
12769;DHT22;6448;48.916;8.990;2022-07-29T01:19:42;27.50;46.80
12769;DHT22;6448;48.916;8.990;2022-07-29T01:21:04;27.40;46.80
12769;DHT22;6448;48.916;8.990;2022-07-29T01:22:27;27.40;46.70
12769;DHT22;6448;48.916;8.990;2022-07-29T01:23:45;27.50;46.90
12769;DHT22;6448;48.916;8.990;2022-07-29T01:25:05;27.40;46.80
12769;DHT22;6448;48.916;8.990;2022-07-29T01:26:27;27.40;47.00
12769;DHT22;6448;48.916;8.990;2022-07-29T01:27:44;27.40;47.00
12769;DHT22;6448;48.916;8.990;2022-07-29T01:29:05;27.40;47.10
12769;DHT22;6448;48.916;8.990;2022-07-29T01:30:08;27.40;47.10
12769;DHT22;6448;48.916;8.990;2022-07-29T01:31:10;27.40;47.10
12769;DHT22;6448;48.916;8.990;2022-07-29T01:32:18;27.40;47.20
12769;DHT22;6448;48.916;8.990;2022-07-29T01:33:21;27.40;47.20
12769;DHT22;6448;48.916;8.990;2022-07-29T01:34:49;27.40;47.30
12769;DHT22;6448;48.916;8.990;2022-07-29T01:35:52;27.40;47.40
12769;DHT22;6448;48.916;8.990;2022-07-29T01:37:00;27.40;47.40
12769;DHT22;6448;48.916;8.990;2022-07-29T01:38:09;27.30;47.40
12769;DHT22;6448;48.916;8.990;2022-07-29T01:39:14;27.30;47.40
12769;DHT22;6448;48.916;8.990;2022-07-29T01:40:20;27.40;47.60
12769;DHT22;6448;48.916;8.990;2022-07-29T01:41:22;27.30;47.70
12769;DHT22;6448;48.916;8.990;2022-07-29T01:42:29;27.40;47.70
12769;DHT22;6448;48.916;8.990;2022-07-29T01:43:35;27.40;47.80
12769;DHT22;6448;48.916;8.990;2022-07-29T01:44:44;27.30;47.80
12769;DHT22;6448;48.916;8.990;2022-07-29T01:45:50;27.40;47.80
12769;DHT22;6448;48.916;8.990;2022-07-29T01:46:57;27.30;47.80
12769;DHT22;6448;48.916;8.990;2022-07-29T01:48:03;27.30;47.90
12769;DHT22;6448;48.916;8.990;2022-07-29T01:49:10;27.40;47.80
12769;DHT22;6448;48.916;8.990;2022-07-29T01:50:15;27.30;47.80
12769;DHT22;6448;48.916;8.990;2022-07-29T01:51:20;27.30;47.80
12769;DHT22;6448;48.916;8.990;2022-07-29T01:52:26;27.30;47.80
12769;DHT22;6448;48.916;8.990;2022-07-29T01:53:31;27.30;47.80
12769;DHT22;6448;48.916;8.990;2022-07-29T01:54:41;27.30;47.80
12769;DHT22;6448;48.916;8.990;2022-07-29T01:55:45;27.30;47.80
12769;DHT22;6448;48.916;8.990;2022-07-29T01:56:49;27.30;47.80
12769;DHT22;6448;48.916;8.990;2022-07-29T01:57:51;27.30;47.80
12769;DHT22;6448;48.916;8.990;2022-07-29T01:58:53;27.30;47.80
12769;DHT22;6448;48.916;8.990;2022-07-29T01:59:57;27.20;47.70
12769;DHT22;6448;48.916;8.990;2022-07-29T02:01:00;27.20;47.70
12769;DHT22;6448;48.916;8.990;2022-07-29T02:02:02;27.30;47.80
12769;DHT22;6448;48.916;8.990;2022-07-29T02:03:08;27.20;47.70
12769;DHT22;6448;48.916;8.990;2022-07-29T02:04:11;27.20;47.80
12769;DHT22;6448;48.916;8.990;2022-07-29T02:05:15;27.20;47.80
12769;DHT22;6448;48.916;8.990;2022-07-29T02:06:21;27.20;47.90
12769;DHT22;6448;48.916;8.990;2022-07-29T02:07:25;27.20;47.90
12769;DHT22;6448;48.916;8.990;2022-07-29T02:08:28;27.20;47.90
12769;DHT22;6448;48.916;8.990;2022-07-29T02:09:32;27.20;48.00
12769;DHT22;6448;48.916;8.990;2022-07-29T02:10:34;27.20;47.90
12769;DHT22;6448;48.916;8.990;2022-07-29T02:11:38;27.20;48.00
12769;DHT22;6448;48.916;8.990;2022-07-29T02:12:39;27.20;48.00
12769;DHT22;6448;48.916;8.990;2022-07-29T02:13:43;27.20;47.90
12769;DHT22;6448;48.916;8.990;2022-07-29T02:14:47;27.20;47.90
12769;DHT22;6448;48.916;8.990;2022-07-29T02:15:51;27.20;48.00
12769;DHT22;6448;48.916;8.990;2022-07-29T02:16:56;27.20;48.00
12769;DHT22;6448;48.916;8.990;2022-07-29T02:18:02;27.20;48.00
12769;DHT22;6448;48.916;8.990;2022-07-29T02:19:05;27.20;48.00
12769;DHT22;6448;48.916;8.990;2022-07-29T02:20:09;27.20;48.10
12769;DHT22;6448;48.916;8.990;2022-07-29T02:21:13;27.20;48.10
12769;DHT22;6448;48.916;8.990;2022-07-29T02:22:18;27.20;48.10
12769;DHT22;6448;48.916;8.990;2022-07-29T02:23:21;27.20;48.10
12769;DHT22;6448;48.916;8.990;2022-07-29T02:24:24;27.10;48.20
12769;DHT22;6448;48.916;8.990;2022-07-29T02:25:26;27.10;48.20
12769;DHT22;6448;48.916;8.990;2022-07-29T02:26:30;27.10;48.20
12769;DHT22;6448;48.916;8.990;2022-07-29T02:27:34;27.20;48.30
12769;DHT22;6448;48.916;8.990;2022-07-29T02:28:36;27.20;48.30
12769;DHT22;6448;48.916;8.990;2022-07-29T02:29:37;27.20;48.30
12769;DHT22;6448;48.916;8.990;2022-07-29T02:30:42;27.10;48.30
12769;DHT22;6448;48.916;8.990;2022-07-29T02:31:46;27.10;48.30
12769;DHT22;6448;48.916;8.990;2022-07-29T02:32:49;27.10;48.40
12769;DHT22;6448;48.916;8.990;2022-07-29T02:33:52;27.10;48.40
12769;DHT22;6448;48.916;8.990;2022-07-29T02:34:55;27.10;48.50
12769;DHT22;6448;48.916;8.990;2022-07-29T02:35:56;27.10;48.40
12769;DHT22;6448;48.916;8.990;2022-07-29T02:37:00;27.10;48.40
12769;DHT22;6448;48.916;8.990;2022-07-29T02:38:02;27.10;48.40
12769;DHT22;6448;48.916;8.990;2022-07-29T02:39:23;27.10;48.50
12769;DHT22;6448;48.916;8.990;2022-07-29T02:40:25;27.10;48.50
12769;DHT22;6448;48.916;8.990;2022-07-29T02:41:29;27.10;48.50
12769;DHT22;6448;48.916;8.990;2022-07-29T02:42:33;27.10;48.50
12769;DHT22;6448;48.916;8.990;2022-07-29T02:43:35;27.10;48.40
12769;DHT22;6448;48.916;8.990;2022-07-29T02:44:38;27.10;48.50
12769;DHT22;6448;48.916;8.990;2022-07-29T02:45:38;27.10;48.40
12769;DHT22;6448;48.916;8.990;2022-07-29T02:46:47;27.10;48.40
12769;DHT22;6448;48.916;8.990;2022-07-29T02:47:50;27.00;48.40
12769;DHT22;6448;48.916;8.990;2022-07-29T02:48:58;27.10;48.50
12769;DHT22;6448;48.916;8.990;2022-07-29T02:50:03;27.10;48.60
12769;DHT22;6448;48.916;8.990;2022-07-29T02:51:12;27.00;48.50
12769;DHT22;6448;48.916;8.990;2022-07-29T02:52:18;27.00;48.50
12769;DHT22;6448;48.916;8.990;2022-07-29T02:53:23;27.10;48.60
12769;DHT22;6448;48.916;8.990;2022-07-29T02:54:31;27.00;48.60
12769;DHT22;6448;48.916;8.990;2022-07-29T02:55:39;27.00;48.60
12769;DHT22;6448;48.916;8.990;2022-07-29T02:56:41;27.10;48.70
12769;DHT22;6448;48.916;8.990;2022-07-29T02:57:47;27.00;48.60
12769;DHT22;6448;48.916;8.990;2022-07-29T02:58:53;27.00;48.60
12769;DHT22;6448;48.916;8.990;2022-07-29T02:59:59;27.00;48.70
12769;DHT22;6448;48.916;8.990;2022-07-29T03:01:08;27.00;48.70
12769;DHT22;6448;48.916;8.990;2022-07-29T03:02:15;27.00;48.70
12769;DHT22;6448;48.916;8.990;2022-07-29T03:03:18;26.90;48.50
12769;DHT22;6448;48.916;8.990;2022-07-29T03:04:22;27.00;48.70
12769;DHT22;6448;48.916;8.990;2022-07-29T03:05:26;27.00;48.60
12769;DHT22;6448;48.916;8.990;2022-07-29T03:06:28;27.00;48.70
12769;DHT22;6448;48.916;8.990;2022-07-29T03:07:29;26.90;48.50
12769;DHT22;6448;48.916;8.990;2022-07-29T03:08:32;26.90;48.50
12769;DHT22;6448;48.916;8.990;2022-07-29T03:09:35;26.90;48.70
12769;DHT22;6448;48.916;8.990;2022-07-29T03:10:38;26.90;48.60
12769;DHT22;6448;48.916;8.990;2022-07-29T03:11:40;26.90;48.60
12769;DHT22;6448;48.916;8.990;2022-07-29T03:12:42;26.80;48.50
12769;DHT22;6448;48.916;8.990;2022-07-29T03:13:44;26.90;48.60
12769;DHT22;6448;48.916;8.990;2022-07-29T03:14:46;26.90;48.60
12769;DHT22;6448;48.916;8.990;2022-07-29T03:15:48;26.90;48.60
12769;DHT22;6448;48.916;8.990;2022-07-29T03:16:51;26.80;48.60
12769;DHT22;6448;48.916;8.990;2022-07-29T03:17:53;26.80;48.60
12769;DHT22;6448;48.916;8.990;2022-07-29T03:18:56;26.80;48.60
12769;DHT22;6448;48.916;8.990;2022-07-29T03:19:57;26.80;48.60
12769;DHT22;6448;48.916;8.990;2022-07-29T03:20:59;26.80;48.60
12769;DHT22;6448;48.916;8.990;2022-07-29T03:22:00;26.80;48.70
12769;DHT22;6448;48.916;8.990;2022-07-29T03:23:02;26.70;48.60
12769;DHT22;6448;48.916;8.990;2022-07-29T03:24:03;26.80;48.70
12769;DHT22;6448;48.916;8.990;2022-07-29T03:25:08;26.80;48.70
12769;DHT22;6448;48.916;8.990;2022-07-29T03:26:09;26.70;48.70
12769;DHT22;6448;48.916;8.990;2022-07-29T03:27:11;26.70;48.90
12769;DHT22;6448;48.916;8.990;2022-07-29T03:28:11;26.70;48.90
12769;DHT22;6448;48.916;8.990;2022-07-29T03:29:13;26.70;48.90
12769;DHT22;6448;48.916;8.990;2022-07-29T03:30:14;26.70;48.80
12769;DHT22;6448;48.916;8.990;2022-07-29T03:31:17;26.70;48.80
12769;DHT22;6448;48.916;8.990;2022-07-29T03:32:17;26.70;48.80
12769;DHT22;6448;48.916;8.990;2022-07-29T03:33:20;26.60;48.80
12769;DHT22;6448;48.916;8.990;2022-07-29T03:34:21;26.90;49.00
12769;DHT22;6448;48.916;8.990;2022-07-29T03:35:23;26.60;48.70
12769;DHT22;6448;48.916;8.990;2022-07-29T03:36:24;26.60;48.70
12769;DHT22;6448;48.916;8.990;2022-07-29T03:37:26;26.60;48.70
12769;DHT22;6448;48.916;8.990;2022-07-29T03:38:28;26.60;48.70
12769;DHT22;6448;48.916;8.990;2022-07-29T03:39:35;26.60;48.70
12769;DHT22;6448;48.916;8.990;2022-07-29T03:40:40;26.60;48.80
12769;DHT22;6448;48.916;8.990;2022-07-29T03:41:42;26.60;48.80
12769;DHT22;6448;48.916;8.990;2022-07-29T03:42:45;26.50;48.80
12769;DHT22;6448;48.916;8.990;2022-07-29T03:43:49;26.60;48.90
12769;DHT22;6448;48.916;8.990;2022-07-29T03:44:52;26.60;49.00
12769;DHT22;6448;48.916;8.990;2022-07-29T03:45:57;26.60;48.90
12769;DHT22;6448;48.916;8.990;2022-07-29T03:47:01;26.50;48.80
12769;DHT22;6448;48.916;8.990;2022-07-29T03:48:08;26.50;48.80
12769;DHT22;6448;48.916;8.990;2022-07-29T03:49:13;26.50;48.90
12769;DHT22;6448;48.916;8.990;2022-07-29T03:50:16;26.50;48.90
12769;DHT22;6448;48.916;8.990;2022-07-29T03:51:17;26.50;48.90
12769;DHT22;6448;48.916;8.990;2022-07-29T03:52:19;26.50;48.90
12769;DHT22;6448;48.916;8.990;2022-07-29T03:53:21;26.50;49.00
12769;DHT22;6448;48.916;8.990;2022-07-29T03:54:23;26.50;49.10
12769;DHT22;6448;48.916;8.990;2022-07-29T03:55:24;26.40;49.00
12769;DHT22;6448;48.916;8.990;2022-07-29T03:56:27;26.40;49.00
12769;DHT22;6448;48.916;8.990;2022-07-29T03:57:30;26.40;49.00
12769;DHT22;6448;48.916;8.990;2022-07-29T03:58:32;26.40;49.00
12769;DHT22;6448;48.916;8.990;2022-07-29T03:59:34;26.40;49.10
12769;DHT22;6448;48.916;8.990;2022-07-29T04:00:36;26.40;49.10
12769;DHT22;6448;48.916;8.990;2022-07-29T04:01:38;26.40;49.20
12769;DHT22;6448;48.916;8.990;2022-07-29T04:02:41;26.30;49.10
12769;DHT22;6448;48.916;8.990;2022-07-29T04:03:45;26.30;49.20
12769;DHT22;6448;48.916;8.990;2022-07-29T04:04:48;26.30;49.30
12769;DHT22;6448;48.916;8.990;2022-07-29T04:05:58;26.30;49.30
12769;DHT22;6448;48.916;8.990;2022-07-29T04:07:01;26.30;49.30
12769;DHT22;6448;48.916;8.990;2022-07-29T04:08:01;26.40;49.40
12769;DHT22;6448;48.916;8.990;2022-07-29T04:09:03;26.30;49.40
12769;DHT22;6448;48.916;8.990;2022-07-29T04:10:05;26.30;49.40
12769;DHT22;6448;48.916;8.990;2022-07-29T04:11:07;26.30;49.30
12769;DHT22;6448;48.916;8.990;2022-07-29T04:12:08;26.30;49.40
12769;DHT22;6448;48.916;8.990;2022-07-29T04:13:10;26.30;49.40
12769;DHT22;6448;48.916;8.990;2022-07-29T04:14:11;26.30;49.40
12769;DHT22;6448;48.916;8.990;2022-07-29T04:15:12;26.30;49.40
12769;DHT22;6448;48.916;8.990;2022-07-29T04:16:13;26.20;49.30
12769;DHT22;6448;48.916;8.990;2022-07-29T04:17:15;26.20;49.30
12769;DHT22;6448;48.916;8.990;2022-07-29T04:18:16;26.20;49.30
12769;DHT22;6448;48.916;8.990;2022-07-29T04:19:17;26.20;49.40
12769;DHT22;6448;48.916;8.990;2022-07-29T04:20:19;26.20;49.30
12769;DHT22;6448;48.916;8.990;2022-07-29T04:21:21;26.20;49.40
12769;DHT22;6448;48.916;8.990;2022-07-29T04:22:22;26.20;49.40
12769;DHT22;6448;48.916;8.990;2022-07-29T04:23:24;26.20;49.50
12769;DHT22;6448;48.916;8.990;2022-07-29T04:24:27;26.20;49.50
12769;DHT22;6448;48.916;8.990;2022-07-29T04:25:28;26.20;49.50
12769;DHT22;6448;48.916;8.990;2022-07-29T04:26:30;26.20;49.50
12769;DHT22;6448;48.916;8.990;2022-07-29T04:27:30;26.20;49.50
12769;DHT22;6448;48.916;8.990;2022-07-29T04:28:32;26.20;49.60
12769;DHT22;6448;48.916;8.990;2022-07-29T04:29:33;26.20;49.50
12769;DHT22;6448;48.916;8.990;2022-07-29T04:30:36;26.10;49.40
12769;DHT22;6448;48.916;8.990;2022-07-29T04:31:38;26.20;49.50
12769;DHT22;6448;48.916;8.990;2022-07-29T04:32:39;26.10;49.40
12769;DHT22;6448;48.916;8.990;2022-07-29T04:33:40;26.20;49.50
12769;DHT22;6448;48.916;8.990;2022-07-29T04:34:42;26.20;49.50
12769;DHT22;6448;48.916;8.990;2022-07-29T04:35:44;26.10;49.40
12769;DHT22;6448;48.916;8.990;2022-07-29T04:36:46;26.10;49.50
12769;DHT22;6448;48.916;8.990;2022-07-29T04:37:47;26.10;49.50
12769;DHT22;6448;48.916;8.990;2022-07-29T04:38:48;26.10;49.60
12769;DHT22;6448;48.916;8.990;2022-07-29T04:39:49;26.10;49.70
12769;DHT22;6448;48.916;8.990;2022-07-29T04:40:51;26.10;49.70
12769;DHT22;6448;48.916;8.990;2022-07-29T04:41:53;26.20;49.70
12769;DHT22;6448;48.916;8.990;2022-07-29T04:42:53;26.10;49.70
12769;DHT22;6448;48.916;8.990;2022-07-29T04:43:55;26.00;49.60
12769;DHT22;6448;48.916;8.990;2022-07-29T04:44:56;26.10;49.70
12769;DHT22;6448;48.916;8.990;2022-07-29T04:45:58;26.10;49.70
12769;DHT22;6448;48.916;8.990;2022-07-29T04:46:58;26.10;49.70
12769;DHT22;6448;48.916;8.990;2022-07-29T04:48:00;26.10;49.70
12769;DHT22;6448;48.916;8.990;2022-07-29T04:49:01;26.10;49.80
12769;DHT22;6448;48.916;8.990;2022-07-29T04:50:04;26.10;49.70
12769;DHT22;6448;48.916;8.990;2022-07-29T04:51:07;26.10;49.80
12769;DHT22;6448;48.916;8.990;2022-07-29T04:52:09;26.00;49.70
12769;DHT22;6448;48.916;8.990;2022-07-29T04:53:10;26.00;49.70
12769;DHT22;6448;48.916;8.990;2022-07-29T04:54:11;26.00;49.80
12769;DHT22;6448;48.916;8.990;2022-07-29T04:55:12;26.00;49.80
12769;DHT22;6448;48.916;8.990;2022-07-29T04:56:14;26.00;49.80
12769;DHT22;6448;48.916;8.990;2022-07-29T04:57:15;26.00;49.90
12769;DHT22;6448;48.916;8.990;2022-07-29T04:58:17;26.00;49.90
12769;DHT22;6448;48.916;8.990;2022-07-29T04:59:17;26.00;49.90
12769;DHT22;6448;48.916;8.990;2022-07-29T05:00:19;26.00;49.90
12769;DHT22;6448;48.916;8.990;2022-07-29T05:01:20;26.00;50.00
12769;DHT22;6448;48.916;8.990;2022-07-29T05:02:22;26.10;50.10
12769;DHT22;6448;48.916;8.990;2022-07-29T05:03:22;26.00;50.10
12769;DHT22;6448;48.916;8.990;2022-07-29T05:04:24;26.00;50.20
12769;DHT22;6448;48.916;8.990;2022-07-29T05:05:25;26.00;50.30
12769;DHT22;6448;48.916;8.990;2022-07-29T05:06:28;26.00;50.30
12769;DHT22;6448;48.916;8.990;2022-07-29T05:07:29;26.00;50.30
12769;DHT22;6448;48.916;8.990;2022-07-29T05:08:30;26.00;50.30
12769;DHT22;6448;48.916;8.990;2022-07-29T05:09:31;26.00;50.30
12769;DHT22;6448;48.916;8.990;2022-07-29T05:10:33;26.00;50.30
12769;DHT22;6448;48.916;8.990;2022-07-29T05:11:38;26.00;50.30
12769;DHT22;6448;48.916;8.990;2022-07-29T05:12:40;26.00;51.00
12769;DHT22;6448;48.916;8.990;2022-07-29T05:13:40;26.00;50.40
12769;DHT22;6448;48.916;8.990;2022-07-29T05:14:43;26.00;50.50
12769;DHT22;6448;48.916;8.990;2022-07-29T05:15:43;26.00;50.60
12769;DHT22;6448;48.916;8.990;2022-07-29T05:16:45;26.10;50.80
12769;DHT22;6448;48.916;8.990;2022-07-29T05:17:46;26.00;50.80
12769;DHT22;6448;48.916;8.990;2022-07-29T05:18:47;26.00;50.90
12769;DHT22;6448;48.916;8.990;2022-07-29T05:19:49;26.00;50.80
12769;DHT22;6448;48.916;8.990;2022-07-29T05:20:51;26.00;50.80
12769;DHT22;6448;48.916;8.990;2022-07-29T05:21:55;26.00;50.80
12769;DHT22;6448;48.916;8.990;2022-07-29T05:22:55;26.00;51.00
12769;DHT22;6448;48.916;8.990;2022-07-29T05:23:57;26.00;51.10
12769;DHT22;6448;48.916;8.990;2022-07-29T05:24:58;26.00;51.20
12769;DHT22;6448;48.916;8.990;2022-07-29T05:26:00;26.00;51.10
12769;DHT22;6448;48.916;8.990;2022-07-29T05:27:01;25.90;51.20
12769;DHT22;6448;48.916;8.990;2022-07-29T05:28:03;26.00;51.30
12769;DHT22;6448;48.916;8.990;2022-07-29T05:29:03;25.90;51.20
12769;DHT22;6448;48.916;8.990;2022-07-29T05:30:06;26.00;51.40
12769;DHT22;6448;48.916;8.990;2022-07-29T05:31:08;26.00;51.40
12769;DHT22;6448;48.916;8.990;2022-07-29T05:32:09;25.90;51.50
12769;DHT22;6448;48.916;8.990;2022-07-29T05:33:11;25.90;51.20
12769;DHT22;6448;48.916;8.990;2022-07-29T05:34:12;26.00;51.40
12769;DHT22;6448;48.916;8.990;2022-07-29T05:35:14;26.00;51.50
12769;DHT22;6448;48.916;8.990;2022-07-29T05:36:16;25.90;51.60
12769;DHT22;6448;48.916;8.990;2022-07-29T05:37:18;26.00;51.50
12769;DHT22;6448;48.916;8.990;2022-07-29T05:38:20;26.00;51.50
12769;DHT22;6448;48.916;8.990;2022-07-29T05:39:21;26.00;51.50
12769;DHT22;6448;48.916;8.990;2022-07-29T05:40:23;26.00;51.60
12769;DHT22;6448;48.916;8.990;2022-07-29T05:41:25;26.00;51.50
12769;DHT22;6448;48.916;8.990;2022-07-29T05:42:26;25.90;51.50
12769;DHT22;6448;48.916;8.990;2022-07-29T05:43:28;26.00;51.70
12769;DHT22;6448;48.916;8.990;2022-07-29T05:44:29;26.00;51.70
12769;DHT22;6448;48.916;8.990;2022-07-29T05:45:31;26.00;51.70
12769;DHT22;6448;48.916;8.990;2022-07-29T05:46:31;26.00;51.60
12769;DHT22;6448;48.916;8.990;2022-07-29T05:47:33;26.00;51.70
12769;DHT22;6448;48.916;8.990;2022-07-29T05:48:36;26.00;51.70
12769;DHT22;6448;48.916;8.990;2022-07-29T05:49:36;26.00;51.70
12769;DHT22;6448;48.916;8.990;2022-07-29T05:50:38;26.00;51.70
12769;DHT22;6448;48.916;8.990;2022-07-29T05:51:40;26.00;51.70
12769;DHT22;6448;48.916;8.990;2022-07-29T05:52:42;26.10;51.80
12769;DHT22;6448;48.916;8.990;2022-07-29T05:53:44;26.00;52.00
12769;DHT22;6448;48.916;8.990;2022-07-29T05:54:45;26.00;52.10
12769;DHT22;6448;48.916;8.990;2022-07-29T05:55:47;26.00;52.10
12769;DHT22;6448;48.916;8.990;2022-07-29T05:56:48;26.00;52.10
12769;DHT22;6448;48.916;8.990;2022-07-29T05:57:51;26.10;52.30
12769;DHT22;6448;48.916;8.990;2022-07-29T05:58:53;26.10;52.20
12769;DHT22;6448;48.916;8.990;2022-07-29T05:59:54;26.10;52.10
12769;DHT22;6448;48.916;8.990;2022-07-29T06:00:55;26.10;52.10
12769;DHT22;6448;48.916;8.990;2022-07-29T06:01:59;26.10;52.00
12769;DHT22;6448;48.916;8.990;2022-07-29T06:03:01;26.10;52.10
12769;DHT22;6448;48.916;8.990;2022-07-29T06:04:02;26.10;52.00
12769;DHT22;6448;48.916;8.990;2022-07-29T06:05:04;26.10;51.90
12769;DHT22;6448;48.916;8.990;2022-07-29T06:06:05;26.10;52.00
12769;DHT22;6448;48.916;8.990;2022-07-29T06:07:07;26.10;51.90
12769;DHT22;6448;48.916;8.990;2022-07-29T06:08:10;26.10;51.90
12769;DHT22;6448;48.916;8.990;2022-07-29T06:09:11;26.10;52.00
12769;DHT22;6448;48.916;8.990;2022-07-29T06:10:13;26.10;52.00
12769;DHT22;6448;48.916;8.990;2022-07-29T06:11:14;26.10;51.90
12769;DHT22;6448;48.916;8.990;2022-07-29T06:12:16;26.10;52.00
12769;DHT22;6448;48.916;8.990;2022-07-29T06:13:16;26.10;52.00
12769;DHT22;6448;48.916;8.990;2022-07-29T06:14:18;26.10;51.90
12769;DHT22;6448;48.916;8.990;2022-07-29T06:15:20;26.10;51.90
12769;DHT22;6448;48.916;8.990;2022-07-29T06:16:21;26.10;51.90
12769;DHT22;6448;48.916;8.990;2022-07-29T06:17:22;26.10;52.00
12769;DHT22;6448;48.916;8.990;2022-07-29T06:18:24;26.10;52.00
12769;DHT22;6448;48.916;8.990;2022-07-29T06:19:25;26.10;51.90
12769;DHT22;6448;48.916;8.990;2022-07-29T06:20:27;26.10;51.90
12769;DHT22;6448;48.916;8.990;2022-07-29T06:21:29;26.10;51.90
12769;DHT22;6448;48.916;8.990;2022-07-29T06:22:31;26.10;51.90
12769;DHT22;6448;48.916;8.990;2022-07-29T06:23:33;26.20;52.10
12769;DHT22;6448;48.916;8.990;2022-07-29T06:24:36;26.20;52.40
12769;DHT22;6448;48.916;8.990;2022-07-29T06:25:39;26.20;52.40
12769;DHT22;6448;48.916;8.990;2022-07-29T06:26:42;26.20;52.50
12769;DHT22;6448;48.916;8.990;2022-07-29T06:27:44;26.20;52.50
12769;DHT22;6448;48.916;8.990;2022-07-29T06:28:44;26.20;52.70
12769;DHT22;6448;48.916;8.990;2022-07-29T06:29:46;26.20;52.70
12769;DHT22;6448;48.916;8.990;2022-07-29T06:30:48;26.20;52.80
12769;DHT22;6448;48.916;8.990;2022-07-29T06:31:48;26.20;52.80
12769;DHT22;6448;48.916;8.990;2022-07-29T06:32:50;26.20;52.80
12769;DHT22;6448;48.916;8.990;2022-07-29T06:33:51;26.30;53.00
12769;DHT22;6448;48.916;8.990;2022-07-29T06:34:53;26.20;53.00
12769;DHT22;6448;48.916;8.990;2022-07-29T06:35:54;26.20;53.00
12769;DHT22;6448;48.916;8.990;2022-07-29T06:36:55;26.20;53.20
12769;DHT22;6448;48.916;8.990;2022-07-29T06:37:56;26.20;53.10
12769;DHT22;6448;48.916;8.990;2022-07-29T06:38:59;26.20;53.20
12769;DHT22;6448;48.916;8.990;2022-07-29T06:40:00;26.20;53.10
12769;DHT22;6448;48.916;8.990;2022-07-29T06:41:20;26.20;52.90
12769;DHT22;6448;48.916;8.990;2022-07-29T06:42:23;26.20;52.90
12769;DHT22;6448;48.916;8.990;2022-07-29T06:43:23;26.20;52.90
12769;DHT22;6448;48.916;8.990;2022-07-29T06:44:25;26.20;53.00